Flugplatz Falkenberg-Lönnewitz

Für EDUF sind keine METAR/TAF Berichte vorhanden.
Es werden die Flugwettermeldungen vom Flugplatz Holzdorf Airport in 24 km Entfernung angezeigt.

Bericht für ETSH

vom 20.09. um 14:20 UTC

Wind 6 kt aus 70°

Sichtweite 10 km oder mehr

aufgelockert bewölkt in 28000 ft

Temperatur 23.0°C

Taupunkt 5.0°C

Luftfeuchtigkeit 31%

Luftdruck 1017 hPa

ETSH 201420Z 07006KT 9999 SCT280 23/05 Q1017 BLU+
Keine Prognose (TAF) verfügbar.
Impressum